createdAt,value
2019-01-22T00:02:02.705Z,100085.40
2019-01-22T00:04:31.913Z,100078.28
2019-01-22T00:07:01.124Z,100081.41
2019-01-22T00:09:30.858Z,100072.91
2019-01-22T00:12:00.591Z,100064.66
2019-01-22T00:14:30.376Z,100059.67
2019-01-22T00:16:59.817Z,100050.44
2019-01-22T00:19:29.114Z,100042.80
2019-01-22T00:21:58.648Z,100043.80
2019-01-22T00:24:27.884Z,100031.77
2019-01-22T00:26:57.076Z,100029.09
2019-01-22T00:29:26.276Z,100022.46
2019-01-22T00:31:55.730Z,100024.27
2019-01-22T00:34:25.217Z,100018.15
2019-01-22T00:36:54.637Z,100015.02
2019-01-22T00:39:23.857Z,100003.82
2019-01-22T00:41:53.082Z,99998.25
2019-01-22T00:44:22.286Z,99998.73
2019-01-22T00:46:51.898Z,99991.30
2019-01-22T00:49:21.362Z,99992.59
2019-01-22T00:51:51.348Z,99984.31
2019-01-22T00:54:20.828Z,99979.02
2019-01-22T00:56:50.313Z,99975.34
2019-01-22T00:59:20.044Z,99978.98
2019-01-22T01:01:49.289Z,99974.38
2019-01-22T01:04:20.456Z,99966.78
2019-01-22T01:06:49.927Z,99958.86
2019-01-22T01:09:19.365Z,99966.48
2019-01-22T01:11:48.572Z,99960.05
2019-01-22T01:14:17.761Z,99955.77
2019-01-22T01:16:47.234Z,99949.33
2019-01-22T01:19:16.426Z,99947.83
2019-01-22T01:21:45.968Z,99950.65
2019-01-22T01:24:15.393Z,99947.05
2019-01-22T01:26:44.912Z,99941.50
2019-01-22T01:29:14.364Z,99939.17
2019-01-22T01:31:45.556Z,99932.00
2019-01-22T01:34:14.718Z,99929.28
2019-01-22T01:36:43.916Z,99931.50
2019-01-22T01:39:13.953Z,99928.06
2019-01-22T01:41:43.455Z,99917.50
2019-01-22T01:44:12.995Z,99910.89
2019-01-22T01:46:42.465Z,99909.61
2019-01-22T01:49:12.896Z,99901.80
2019-01-22T01:51:42.382Z,99899.02
2019-01-22T01:54:11.558Z,99903.95
2019-01-22T01:56:40.754Z,99898.75
2019-01-22T01:59:10.728Z,99890.66
2019-01-22T02:01:40.554Z,99892.64
2019-01-22T02:04:09.735Z,99880.08
2019-01-22T02:06:39.306Z,99877.98
2019-01-22T02:09:09.317Z,99876.16
2019-01-22T02:11:42.287Z,99876.00
2019-01-22T02:14:12.661Z,99870.87
2019-01-22T02:17:04.005Z,99868.86
2019-01-22T02:20:04.560Z,99860.91
2019-01-22T02:23:12.173Z,99856.93
2019-01-22T02:26:19.677Z,99845.53
2019-01-22T02:29:26.952Z,99843.39
2019-01-22T02:32:34.232Z,99835.69
2019-01-22T02:35:33.899Z,99834.37
2019-01-22T02:38:41.439Z,99828.90
2019-01-22T02:41:27.874Z,99825.59
2019-01-22T02:44:35.437Z,99817.51
2019-01-22T02:47:16.055Z,99815.53
2019-01-22T02:50:23.326Z,99807.42
2019-01-22T02:53:01.521Z,99798.52
2019-01-22T02:56:08.774Z,99799.80
2019-01-22T02:59:16.053Z,99793.72
2019-01-22T03:07:53.825Z,99768.43
2019-01-22T03:14:16.212Z,99752.58
2019-01-22T03:17:23.464Z,99744.97
2019-01-22T03:20:18.862Z,99745.62
2019-01-22T03:29:16.822Z,99733.73
2019-01-22T04:07:33.839Z,99670.12
2019-01-22T04:10:25.747Z,99666.30
2019-01-22T04:12:55.163Z,99656.55
2019-01-22T04:15:30.926Z,99651.77
2019-01-22T04:18:00.421Z,99645.02
2019-01-22T04:20:29.868Z,99646.82
2019-01-22T04:23:12.524Z,99643.48
2019-01-22T04:25:50.428Z,99635.23
2019-01-22T04:31:39.832Z,99630.27
2019-01-22T04:43:26.505Z,99605.52
2019-01-22T04:46:33.741Z,99600.94
2019-01-22T05:09:22.245Z,99565.97
2019-01-22T05:14:58.606Z,99562.36
2019-01-22T05:17:45.773Z,99561.53
2019-01-22T05:26:42.033Z,99553.75
2019-01-22T05:29:35.838Z,99556.08
2019-01-22T05:32:43.258Z,99551.63
2019-01-22T05:35:52.236Z,99543.19
2019-01-22T05:38:44.302Z,99542.38
2019-01-22T05:41:52.343Z,99536.45
2019-01-22T05:44:59.870Z,99527.34
2019-01-22T05:48:13.243Z,99525.00
2019-01-22T05:51:16.676Z,99529.61
2019-01-22T05:54:25.290Z,99522.98
2019-01-22T05:57:12.524Z,99514.89
2019-01-22T06:00:07.975Z,99513.66
2019-01-22T06:06:30.451Z,99496.02
2019-01-22T06:09:37.984Z,99495.81
2019-01-22T06:12:45.530Z,99484.23
2019-01-22T06:15:25.914Z,99490.70
2019-01-22T06:18:33.182Z,99494.83
2019-01-22T06:21:40.418Z,99492.17
2019-01-22T06:27:45.947Z,99481.16
2019-01-22T06:30:53.489Z,99464.80
2019-01-22T06:33:47.751Z,99469.13
2019-01-22T06:36:55.185Z,99469.50
2019-01-22T06:40:02.494Z,99474.48
2019-01-22T06:43:10.041Z,99461.42
2019-01-22T06:46:09.645Z,99460.94
2019-01-22T06:49:16.949Z,99463.44
2019-01-22T06:52:24.466Z,99448.76
2019-01-22T06:55:15.196Z,99444.00
2019-01-22T06:58:22.787Z,99429.62
2019-01-22T07:01:16.098Z,99428.64
2019-01-22T07:04:07.276Z,99423.36
2019-01-22T07:07:14.531Z,99421.69
2019-01-22T07:10:21.849Z,99413.12
2019-01-22T07:13:24.041Z,99420.97
2019-01-22T07:16:31.306Z,99410.38
2019-01-22T07:19:38.844Z,99406.35
2019-01-22T07:25:54.808Z,99383.73
2019-01-22T07:29:02.363Z,99385.72
2019-01-22T07:32:10.471Z,99375.53
2019-01-22T07:35:17.757Z,99376.84
2019-01-22T07:38:25.016Z,99360.35
2019-01-22T07:41:32.548Z,99359.16
2019-01-22T07:44:40.123Z,99360.77
2019-01-22T07:47:47.573Z,99360.06
2019-01-22T07:50:55.152Z,99357.36
2019-01-22T07:54:02.500Z,99351.21
2019-01-22T07:56:54.141Z,99346.38
2019-01-22T07:59:44.982Z,99348.77
2019-01-22T08:02:52.511Z,99351.23
2019-01-22T08:06:16.788Z,99344.92
2019-01-22T08:09:24.414Z,99351.95
2019-01-22T08:12:20.288Z,99349.60
2019-01-22T08:15:27.608Z,99340.89
2019-01-22T08:18:35.172Z,99332.68
2019-01-22T08:21:42.725Z,99337.42
2019-01-22T08:24:49.973Z,99348.71
2019-01-22T08:27:57.234Z,99338.17
2019-01-22T08:31:04.861Z,99336.30
2019-01-22T08:34:12.270Z,99350.70
2019-01-22T08:37:19.818Z,99355.55
2019-01-22T08:40:15.142Z,99353.91
2019-01-22T08:43:22.437Z,99354.79
2019-01-22T08:46:29.947Z,99346.95
2019-01-22T08:49:37.218Z,99349.62
2019-01-22T08:52:44.771Z,99342.86
2019-01-22T08:55:52.604Z,99341.67
2019-01-22T08:58:51.945Z,99341.11
2019-01-22T09:01:59.467Z,99334.34
2019-01-22T09:05:06.735Z,99337.77
2019-01-22T09:08:01.592Z,99333.92
2019-01-22T09:11:08.858Z,99335.88
2019-01-22T09:14:17.568Z,99319.91
2019-01-22T09:17:24.866Z,99326.59
2019-01-22T09:20:16.214Z,99325.78
2019-01-22T09:23:23.489Z,99318.81
2019-01-22T09:26:30.779Z,99315.78
2019-01-22T09:29:38.329Z,99314.97
2019-01-22T09:32:45.854Z,99305.23
2019-01-22T09:35:53.148Z,99305.84
2019-01-22T09:38:22.614Z,99300.45
2019-01-22T09:40:52.124Z,99292.01
2019-01-22T09:43:21.303Z,99288.66
2019-01-22T09:45:51.269Z,99284.97
2019-01-22T09:48:21.150Z,99281.73
2019-01-22T09:50:50.489Z,99278.95
2019-01-22T09:53:19.965Z,99276.71
2019-01-22T09:55:49.437Z,99268.06
2019-01-22T09:58:18.978Z,99261.13
2019-01-22T10:00:48.513Z,99257.80
2019-01-22T10:03:17.949Z,99256.86
2019-01-22T10:05:47.420Z,99259.66
2019-01-22T10:08:16.932Z,99261.31
2019-01-22T10:10:46.888Z,99248.52
2019-01-22T10:13:16.152Z,99237.56
2019-01-22T10:15:45.650Z,99226.17
2019-01-22T10:18:14.858Z,99222.21
2019-01-22T10:20:44.327Z,99227.09
2019-01-22T10:23:14.108Z,99216.29
2019-01-22T10:25:44.778Z,99208.60
2019-01-22T10:28:14.543Z,99200.61
2019-01-22T10:30:44.063Z,99205.44
2019-01-22T10:33:13.218Z,99204.53
2019-01-22T10:35:42.522Z,99203.75
2019-01-22T10:38:11.799Z,99194.55
2019-01-22T10:40:41.248Z,99200.37
2019-01-22T10:43:10.467Z,99202.65
2019-01-22T10:45:39.705Z,99191.18
2019-01-22T10:48:08.944Z,99188.73
2019-01-22T10:50:38.129Z,99180.84
2019-01-22T10:53:07.375Z,99179.30
2019-01-22T10:55:36.845Z,99169.26
2019-01-22T10:58:08.701Z,99175.00
2019-01-22T11:00:38.076Z,99171.38
2019-01-22T11:03:08.909Z,99168.42
2019-01-22T11:05:40.622Z,99171.19
2019-01-22T11:08:29.257Z,99163.39
2019-01-22T11:10:58.443Z,99170.67
2019-01-22T11:13:28.772Z,99174.59
2019-01-22T11:15:58.270Z,99177.98
2019-01-22T11:18:27.945Z,99174.20
2019-01-22T11:20:57.402Z,99170.49
2019-01-22T11:23:26.685Z,99162.84
2019-01-22T11:25:56.142Z,99161.50
2019-01-22T11:28:25.643Z,99163.44
2019-01-22T11:30:54.847Z,99159.77
2019-01-22T11:33:24.057Z,99158.23
2019-01-22T11:35:53.274Z,99150.86
2019-01-22T11:38:22.469Z,99147.66
2019-01-22T11:40:51.648Z,99142.15
2019-01-22T11:43:20.846Z,99137.72
2019-01-22T11:45:50.064Z,99144.30
2019-01-22T11:48:19.263Z,99145.30
2019-01-22T11:50:48.745Z,99144.39
2019-01-22T11:53:18.222Z,99139.47
2019-01-22T11:55:50.561Z,99134.66
2019-01-22T11:58:18.925Z,99140.50
2019-01-22T12:03:44.138Z,99128.52
2019-01-22T12:06:13.353Z,99123.67
2019-01-22T12:08:43.097Z,99113.10
2019-01-22T12:14:00.890Z,99115.16
2019-01-22T12:16:30.892Z,99110.02
2019-01-22T12:19:00.384Z,99104.59
2019-01-22T12:21:29.566Z,99115.59
2019-01-22T12:23:59.039Z,99107.29
2019-01-22T12:26:28.766Z,99103.56
2019-01-22T12:28:58.231Z,99118.86
2019-01-22T12:31:27.426Z,99109.33
2019-01-22T12:33:57.309Z,99108.16
2019-01-22T12:36:26.754Z,99110.47
2019-01-22T12:38:56.231Z,99090.08
2019-01-22T12:41:25.409Z,99100.61
2019-01-22T12:43:55.013Z,99092.08
2019-01-22T12:46:24.177Z,99100.17
2019-01-22T12:48:53.367Z,99094.14
2019-01-22T12:51:22.835Z,99094.42
2019-01-22T12:53:52.065Z,99090.78
2019-01-22T12:56:21.240Z,99092.58
2019-01-22T12:58:50.551Z,99089.97
2019-01-22T13:01:19.729Z,99091.05
2019-01-22T13:03:48.932Z,99089.97
2019-01-22T13:06:18.558Z,99089.16
2019-01-22T13:08:47.757Z,99088.00
2019-01-22T13:11:16.925Z,99089.38
2019-01-22T13:13:46.405Z,99080.59
2019-01-22T13:16:15.607Z,99067.95
2019-01-22T13:18:44.801Z,99065.51
2019-01-22T13:21:14.826Z,99066.80
2019-01-22T13:23:45.325Z,99057.59
2019-01-22T13:26:14.511Z,99055.21
2019-01-22T13:28:43.889Z,99054.34
2019-01-22T13:31:13.091Z,99047.13
2019-01-22T13:33:42.284Z,99041.93
2019-01-22T13:36:11.459Z,99038.84
2019-01-22T13:38:40.657Z,99029.41
2019-01-22T13:41:09.820Z,99022.14
2019-01-22T13:43:39.021Z,99016.55
2019-01-22T13:46:08.191Z,98990.70
2019-01-22T13:48:37.432Z,98985.59
2019-01-22T13:51:06.684Z,98982.88
2019-01-22T13:53:35.845Z,98971.33
2019-01-22T13:56:05.035Z,98971.50
2019-01-22T13:58:35.418Z,98977.56
2019-01-22T14:01:04.729Z,98957.77
2019-01-22T14:03:33.952Z,98950.05
2019-01-22T14:06:03.124Z,98947.20
2019-01-22T14:08:32.321Z,98951.05
2019-01-22T14:11:01.505Z,98956.87
2019-01-22T14:13:30.695Z,98948.25
2019-01-22T14:16:00.194Z,98952.44
2019-01-22T14:18:29.360Z,98950.25
2019-01-22T14:20:58.579Z,98951.74
2019-01-22T14:23:27.743Z,98952.73
2019-01-22T14:25:56.965Z,98956.50
2019-01-22T14:28:26.414Z,98953.96
2019-01-22T14:30:55.613Z,98955.23
2019-01-22T14:33:24.802Z,98951.45
2019-01-22T14:35:54.000Z,98953.58
2019-01-22T14:38:23.183Z,98956.44
2019-01-22T14:40:52.651Z,98947.45
2019-01-22T14:43:22.148Z,98946.97
2019-01-22T14:45:51.333Z,98950.80
2019-01-22T14:48:20.524Z,98947.14
2019-01-22T14:50:49.740Z,98964.95
2019-01-22T14:53:18.915Z,98964.42
2019-01-22T14:58:42.709Z,98944.67
2019-01-22T15:01:11.911Z,98931.42
2019-01-22T15:03:41.616Z,98924.26
2019-01-22T15:06:12.066Z,98922.73
2019-01-22T15:08:41.260Z,98917.22
2019-01-22T15:11:10.465Z,98914.69
2019-01-22T15:13:39.678Z,98911.84
2019-01-22T15:16:08.913Z,98918.27
2019-01-22T15:18:38.080Z,98907.15
2019-01-22T15:21:07.306Z,98906.20
2019-01-22T15:23:36.486Z,98913.89
2019-01-22T15:26:05.733Z,98907.12
2019-01-22T15:28:35.467Z,98902.23
2019-01-22T15:31:05.134Z,98903.25
2019-01-22T15:33:34.315Z,98896.53
2019-01-22T15:36:03.531Z,98892.48
2019-01-22T15:41:20.921Z,98892.86
2019-01-22T15:43:50.205Z,98893.81
2019-01-22T15:46:19.942Z,98892.80
2019-01-22T15:52:17.099Z,98888.90
2019-01-22T15:54:46.570Z,98881.84
2019-01-22T15:57:15.785Z,98878.57
2019-01-22T15:59:44.996Z,98885.64
2019-01-22T16:02:14.273Z,98882.05
2019-01-22T16:04:43.489Z,98884.97
2019-01-22T16:07:12.968Z,98875.39
2019-01-22T16:09:42.529Z,98870.65
2019-01-22T16:12:11.740Z,98867.00
2019-01-22T16:14:41.010Z,98867.72
2019-01-22T16:17:10.281Z,98868.30
2019-01-22T16:19:39.732Z,98861.08
2019-01-22T16:22:09.230Z,98863.58
2019-01-22T16:24:38.426Z,98868.50
2019-01-22T16:27:07.649Z,98856.94
2019-01-22T16:29:36.860Z,98859.52
2019-01-22T16:32:06.080Z,98854.08
2019-01-22T16:34:35.277Z,98851.64
2019-01-22T16:37:04.501Z,98846.73
2019-01-22T16:39:33.959Z,98841.28
2019-01-22T16:42:03.220Z,98840.55
2019-01-22T16:44:32.457Z,98826.71
2019-01-22T16:47:01.626Z,98829.02
2019-01-22T16:49:31.052Z,98827.59
2019-01-22T16:52:00.285Z,98819.65
2019-01-22T16:54:29.471Z,98812.84
2019-01-22T16:57:00.580Z,98814.01
2019-01-22T16:59:30.412Z,98812.53
2019-01-22T17:01:59.635Z,98811.98
2019-01-22T17:04:28.863Z,98811.80
2019-01-22T17:06:58.282Z,98806.00
2019-01-22T17:09:27.457Z,98808.16
2019-01-22T17:11:56.674Z,98804.08
2019-01-22T17:14:25.891Z,98803.56
2019-01-22T17:16:55.271Z,98796.91
2019-01-22T17:19:24.439Z,98800.46
2019-01-22T17:21:53.922Z,98799.73
2019-01-22T17:24:23.361Z,98798.27
2019-01-22T17:26:52.844Z,98794.55
2019-01-22T17:29:22.048Z,98786.70
2019-01-22T17:32:10.203Z,98784.97
2019-01-22T17:34:58.317Z,98774.73
2019-01-22T17:37:27.511Z,98772.67
2019-01-22T17:39:56.722Z,98770.52
2019-01-22T17:42:26.206Z,98768.59
2019-01-22T17:44:55.497Z,98768.59
2019-01-22T17:47:24.746Z,98770.52
2019-01-22T17:49:54.188Z,98762.62
2019-01-22T17:52:23.374Z,98761.70
2019-01-22T17:54:52.830Z,98762.94
2019-01-22T17:57:22.369Z,98755.38
2019-01-22T17:59:51.565Z,98753.35
2019-01-22T18:02:39.758Z,98749.73
2019-01-22T18:05:10.127Z,98744.50
2019-01-22T18:07:39.374Z,98749.83
2019-01-22T18:10:10.312Z,98736.10
2019-01-22T18:12:39.820Z,98739.08
2019-01-22T18:15:10.392Z,98736.28
2019-01-22T18:17:39.606Z,98727.02
2019-01-22T18:20:11.855Z,98722.48
2019-01-22T18:22:41.339Z,98724.45
2019-01-22T18:25:31.034Z,98719.45
2019-01-22T18:28:00.634Z,98725.05
2019-01-22T18:30:29.810Z,98721.05
2019-01-22T18:33:18.942Z,98715.33
2019-01-22T18:35:48.173Z,98706.56
2019-01-22T18:38:36.757Z,98711.80
2019-01-22T18:41:06.055Z,98711.16
2019-01-22T18:43:35.738Z,98704.09
2019-01-22T18:46:06.502Z,98706.33
2019-01-22T18:48:36.752Z,98703.80
2019-01-22T18:51:06.268Z,98695.73
2019-01-22T18:53:35.529Z,98690.50
2019-01-22T18:56:04.714Z,98694.41
2019-01-22T18:58:53.000Z,98690.32
2019-01-22T19:01:22.597Z,98688.77
2019-01-22T19:03:52.175Z,98689.50
2019-01-22T19:06:21.356Z,98690.74
2019-01-22T19:08:50.958Z,98689.50
2019-01-22T19:11:20.327Z,98682.76
2019-01-22T19:13:49.672Z,98684.09
2019-01-22T19:16:18.896Z,98681.94
2019-01-22T19:18:48.176Z,98681.98
2019-01-22T19:21:17.352Z,98679.50
2019-01-22T19:23:46.560Z,98683.67
2019-01-22T19:26:16.542Z,98674.45
2019-01-22T19:28:45.780Z,98673.16
2019-01-22T19:31:15.001Z,98671.00
2019-01-22T19:33:44.657Z,98670.88
2019-01-22T19:36:14.181Z,98660.52
2019-01-22T19:38:43.453Z,98664.17
2019-01-22T19:41:12.654Z,98653.31
2019-01-22T19:43:42.129Z,98653.41
2019-01-22T19:46:11.304Z,98646.89
2019-01-22T19:48:40.507Z,98640.25
2019-01-22T19:51:09.669Z,98636.03
2019-01-22T19:53:38.871Z,98633.19
2019-01-22T19:56:08.470Z,98627.65
2019-01-22T19:58:37.931Z,98626.59
2019-01-22T20:01:07.392Z,98619.25
2019-01-22T20:03:36.606Z,98613.30
2019-01-22T20:06:05.918Z,98615.67
2019-01-22T20:08:35.076Z,98610.73
2019-01-22T20:11:04.395Z,98610.83
2019-01-22T20:13:33.595Z,98609.13
2019-01-22T20:16:02.810Z,98603.94
2019-01-22T20:18:32.095Z,98597.16
2019-01-22T20:21:01.361Z,98597.77
2019-01-22T20:23:30.855Z,98597.03
2019-01-22T20:26:00.032Z,98590.76
2019-01-22T20:28:29.233Z,98588.88
2019-01-22T20:30:58.430Z,98584.80
2019-01-22T20:33:27.660Z,98585.84
2019-01-22T20:35:56.853Z,98581.95
2019-01-22T20:38:26.400Z,98584.29
2019-01-22T20:40:55.946Z,98583.92
2019-01-22T20:43:25.408Z,98586.66
2019-01-22T20:45:54.597Z,98584.42
2019-01-22T20:48:23.799Z,98579.93
2019-01-22T20:50:53.244Z,98574.53
2019-01-22T20:53:22.742Z,98570.03
2019-01-22T20:55:51.921Z,98565.77
2019-01-22T20:58:21.137Z,98558.48
2019-01-22T21:00:50.302Z,98560.33
2019-01-22T21:03:19.762Z,98547.91
2019-01-22T21:05:48.934Z,98549.32
2019-01-22T21:08:18.117Z,98547.44
2019-01-22T21:10:47.694Z,98543.32
2019-01-22T21:13:17.460Z,98540.35
2019-01-22T21:15:46.655Z,98540.80
2019-01-22T21:18:15.884Z,98537.09
2019-01-22T21:20:45.071Z,98535.59
2019-01-22T21:23:14.263Z,98523.53
2019-01-22T21:25:43.429Z,98520.00
2019-01-22T21:28:12.899Z,98521.70
2019-01-22T21:30:42.069Z,98520.38
2019-01-22T21:33:11.697Z,98515.66
2019-01-22T21:35:40.887Z,98513.54
2019-01-22T21:38:10.505Z,98510.15
2019-01-22T21:40:40.238Z,98512.89
2019-01-22T21:43:09.442Z,98513.54
2019-01-22T21:45:38.682Z,98512.49
2019-01-22T21:48:07.933Z,98509.42
2019-01-22T21:50:37.422Z,98509.55
2019-01-22T21:53:06.878Z,98505.03
2019-01-22T21:55:36.206Z,98503.28
2019-01-22T21:58:08.576Z,98502.96
2019-01-22T22:00:36.867Z,98507.59
2019-01-22T22:03:06.053Z,98510.84
2019-01-22T22:05:35.284Z,98501.65
2019-01-22T22:08:04.551Z,98505.30
2019-01-22T22:10:33.749Z,98503.56
2019-01-22T22:13:03.196Z,98499.77
2019-01-22T22:15:32.415Z,98506.36
2019-01-22T22:18:01.635Z,98503.84
2019-01-22T22:20:31.112Z,98501.73
2019-01-22T22:23:00.290Z,98498.75
2019-01-22T22:25:29.517Z,98495.14
2019-01-22T22:27:58.991Z,98492.99
2019-01-22T22:30:30.865Z,98488.22
2019-01-22T22:33:00.026Z,98482.36
2019-01-22T22:35:29.241Z,98476.64
2019-01-22T22:37:59.350Z,98469.27
2019-01-22T22:40:29.983Z,98461.88
2019-01-22T22:42:59.172Z,98462.48
2019-01-22T22:45:28.381Z,98461.78
2019-01-22T22:47:57.549Z,98456.97
2019-01-22T22:50:28.935Z,98461.78
2019-01-22T22:52:58.700Z,98455.42
2019-01-22T22:55:27.905Z,98451.34
2019-01-22T22:57:57.068Z,98447.81
2019-01-22T23:03:52.024Z,98452.17
2019-01-22T23:06:21.191Z,98446.63
2019-01-22T23:08:50.372Z,98441.31
2019-01-22T23:11:19.547Z,98448.27
2019-01-22T23:13:49.046Z,98440.58
2019-01-22T23:16:18.288Z,98440.80
2019-01-22T23:18:47.484Z,98433.94
2019-01-22T23:21:16.684Z,98438.83
2019-01-22T23:23:46.238Z,98429.44
2019-01-22T23:26:15.434Z,98425.03
2019-01-22T23:28:44.619Z,98438.74
2019-01-22T23:31:13.800Z,98438.01
2019-01-22T23:33:43.039Z,98441.48
2019-01-22T23:36:12.314Z,98436.39
2019-01-22T23:38:41.469Z,98432.69
2019-01-22T23:41:10.996Z,98428.80
2019-01-22T23:43:40.161Z,98428.28
2019-01-22T23:46:09.616Z,98426.22
2019-01-22T23:48:38.796Z,98429.30
2019-01-22T23:51:08.009Z,98418.67
2019-01-22T23:53:37.175Z,98414.69
2019-01-22T23:56:06.373Z,98409.97
2019-01-22T23:58:35.942Z,98405.55
